Time;durP1;ratioP1;P1;durP2;ratioP2;P2;SDS_P1;SDS_P2;PMS_P1;PMS_P2;Temp;Humidity;BMP_temperature;BMP_pressure;BME280_temperature;BME280_humidity;BME280_pressure;Samples;Min_cycle;Max_cycle;Signal;HPM_P1;HPM_P2
2022/03/07 00:00:43;;;;;;;20.67;13.00;;;;;;;;;;5073498;28;20463;-70
2022/03/07 00:03:10;;;;;;;19.80;11.57;;;;;;;;;;5072934;28;20448;-70
2022/03/07 00:05:37;;;;;;;14.40;8.63;;;;;;;;;;5073008;28;20432;-70
2022/03/07 00:08:04;;;;;;;17.67;11.23;;;;;;;;;;5073367;28;20467;-70
2022/03/07 00:10:32;;;;;;;15.77;10.90;;;;;;;;;;5073468;28;20498;-70
2022/03/07 00:13:00;;;;;;;20.17;9.90;;;;;;;;;;5073325;28;20487;-70
2022/03/07 00:15:27;;;;;;;16.03;8.63;;;;;;;;;;5073332;28;20451;-70
2022/03/07 00:17:54;;;;;;;11.40;8.80;;;;;;;;;;5073175;28;20991;-70
2022/03/07 00:20:21;;;;;;;10.50;7.60;;;;;;;;;;5073341;28;20451;-71
2022/03/07 00:22:48;;;;;;;24.67;13.77;;;;;;;;;;5072997;28;20443;-70
2022/03/07 00:25:17;;;;;;;13.57;9.07;;;;;;;;;;5073241;28;20451;-70
2022/03/07 00:27:44;;;;;;;14.27;10.90;;;;;;;;;;5072777;28;20497;-70
2022/03/07 00:30:15;;;;;;;13.60;10.30;;;;;;;;;;5073284;28;20452;-70
2022/03/07 00:32:42;;;;;;;18.67;11.63;;;;;;;;;;5073010;28;20968;-70
2022/03/07 00:35:10;;;;;;;16.10;10.67;;;;;;;;;;5073072;28;20820;-70
2022/03/07 00:37:37;;;;;;;16.97;10.97;;;;;;;;;;5073026;28;20498;-70
2022/03/07 00:40:06;;;;;;;17.63;12.23;;;;;;;;;;5072896;28;20447;-70
2022/03/07 00:42:33;;;;;;;23.73;12.40;;;;;;;;;;5072830;28;20455;-70
2022/03/07 00:45:00;;;;;;;25.37;11.50;;;;;;;;;;5074937;28;20949;-70
2022/03/07 00:47:28;;;;;;;20.40;11.27;;;;;;;;;;5076796;28;20467;-70
2022/03/07 00:49:55;;;;;;;16.67;11.97;;;;;;;;;;5076982;28;20889;-70
2022/03/07 00:52:23;;;;;;;22.63;12.77;;;;;;;;;;5076890;28;20454;-70
2022/03/07 00:54:50;;;;;;;18.80;11.73;;;;;;;;;;5076415;28;20483;-70
2022/03/07 00:57:17;;;;;;;16.73;12.90;;;;;;;;;;5076704;28;20504;-70
2022/03/07 00:59:44;;;;;;;17.63;10.47;;;;;;;;;;5076666;28;20864;-70
2022/03/07 01:02:14;;;;;;;17.10;9.93;;;;;;;;;;5076708;28;20456;-70
2022/03/07 01:04:43;;;;;;;21.27;13.17;;;;;;;;;;5076584;28;20428;-70
2022/03/07 01:07:10;;;;;;;14.70;9.83;;;;;;;;;;5076510;28;20483;-70
2022/03/07 01:09:37;;;;;;;21.03;11.53;;;;;;;;;;5076532;28;20452;-70
2022/03/07 01:12:04;;;;;;;19.33;11.87;;;;;;;;;;5076467;28;20454;-70
2022/03/07 01:14:32;;;;;;;17.50;11.40;;;;;;;;;;5075936;28;20515;-70
2022/03/07 01:16:59;;;;;;;20.20;11.40;;;;;;;;;;5075993;28;20498;-70
2022/03/07 01:19:26;;;;;;;15.40;9.73;;;;;;;;;;5076344;28;20534;-70
2022/03/07 01:21:54;;;;;;;13.53;8.37;;;;;;;;;;5076347;28;20455;-70
2022/03/07 01:24:21;;;;;;;17.73;10.33;;;;;;;;;;5076312;28;20928;-69
2022/03/07 01:26:48;;;;;;;19.73;11.50;;;;;;;;;;5076140;28;20478;-69
2022/03/07 01:29:16;;;;;;;16.70;10.10;;;;;;;;;;5076229;28;20447;-69
2022/03/07 01:31:43;;;;;;;20.20;12.63;;;;;;;;;;5075799;28;20453;-69
2022/03/07 01:34:10;;;;;;;21.80;10.97;;;;;;;;;;5075606;28;20854;-69
2022/03/07 01:36:37;;;;;;;18.40;11.50;;;;;;;;;;5075975;28;20451;-69
2022/03/07 01:39:06;;;;;;;18.67;12.27;;;;;;;;;;5076072;28;20505;-70
2022/03/07 01:41:33;;;;;;;15.60;11.00;;;;;;;;;;5075978;28;20448;-69
2022/03/07 01:44:00;;;;;;;26.07;11.63;;;;;;;;;;5075625;28;20474;-69
2022/03/07 01:46:28;;;;;;;17.87;8.37;;;;;;;;;;5075408;28;20455;-70
2022/03/07 01:48:55;;;;;;;19.53;12.63;;;;;;;;;;5075510;28;20471;-70
2022/03/07 01:51:22;;;;;;;17.50;11.23;;;;;;;;;;5075829;28;20448;-69
2022/03/07 01:53:50;;;;;;;19.63;12.73;;;;;;;;;;5075273;28;20484;-70
2022/03/07 01:56:18;;;;;;;19.00;11.10;;;;;;;;;;5074707;28;20455;-70
2022/03/07 01:58:45;;;;;;;14.97;9.80;;;;;;;;;;5075594;28;20488;-70
2022/03/07 02:01:13;;;;;;;21.37;11.90;;;;;;;;;;5075672;28;20451;-70
2022/03/07 02:03:40;;;;;;;21.00;13.00;;;;;;;;;;5075597;28;20444;-70
2022/03/07 02:06:07;;;;;;;20.23;12.50;;;;;;;;;;5075553;28;20447;-70
2022/03/07 02:08:34;;;;;;;13.03;8.67;;;;;;;;;;5075333;28;20480;-70
2022/03/07 02:11:02;;;;;;;21.20;12.80;;;;;;;;;;5075435;28;20821;-70
2022/03/07 02:13:31;;;;;;;23.30;10.50;;;;;;;;;;5075300;28;20574;-70
2022/03/07 02:15:59;;;;;;;18.27;10.80;;;;;;;;;;5075383;28;20448;-70
2022/03/07 02:18:28;;;;;;;12.57;8.97;;;;;;;;;;5075231;28;20551;-70
2022/03/07 02:20:57;;;;;;;22.27;11.43;;;;;;;;;;5074853;28;20542;-70
2022/03/07 02:23:26;;;;;;;25.97;12.87;;;;;;;;;;5074878;28;20444;-70
2022/03/07 02:25:53;;;;;;;21.57;10.33;;;;;;;;;;5074854;28;20451;-70
2022/03/07 02:28:21;;;;;;;18.07;13.37;;;;;;;;;;5075005;28;20478;-70
2022/03/07 02:30:48;;;;;;;19.80;12.93;;;;;;;;;;5075017;28;20452;-70
2022/03/07 02:33:15;;;;;;;15.57;10.27;;;;;;;;;;5075016;28;20459;-70
2022/03/07 02:35:42;;;;;;;22.50;13.43;;;;;;;;;;5074495;28;20444;-70
2022/03/07 02:38:13;;;;;;;22.50;13.43;;;;;;;;;;5074851;28;21003;-70
2022/03/07 02:40:44;;;;;;;16.07;9.50;;;;;;;;;;5074885;28;20964;-70
2022/03/07 02:43:11;;;;;;;15.57;10.23;;;;;;;;;;5075026;28;20452;-69
2022/03/07 02:45:38;;;;;;;28.03;11.90;;;;;;;;;;5074796;28;20456;-70
2022/03/07 02:48:05;;;;;;;17.40;11.30;;;;;;;;;;5074235;28;20490;-69
2022/03/07 02:50:32;;;;;;;22.87;12.20;;;;;;;;;;5074386;28;20447;-70
2022/03/07 02:52:59;;;;;;;21.13;9.67;;;;;;;;;;5074610;28;20819;-70
2022/03/07 02:55:26;;;;;;;18.80;11.40;;;;;;;;;;5074479;28;20483;-70
2022/03/07 02:57:55;;;;;;;21.40;11.60;;;;;;;;;;5074080;28;20472;-70
2022/03/07 03:00:22;;;;;;;18.13;12.17;;;;;;;;;;5074197;28;20819;-70
2022/03/07 03:02:49;;;;;;;17.80;10.73;;;;;;;;;;5074163;28;20444;-70
2022/03/07 03:05:16;;;;;;;20.73;13.53;;;;;;;;;;5074313;28;20431;-70
2022/03/07 03:07:43;;;;;;;23.77;13.53;;;;;;;;;;5073640;28;20484;-70
2022/03/07 03:10:11;;;;;;;22.83;12.77;;;;;;;;;;5074300;28;20432;-70
2022/03/07 03:12:38;;;;;;;18.20;10.13;;;;;;;;;;5073929;28;20471;-70
2022/03/07 03:15:07;;;;;;;19.30;11.20;;;;;;;;;;5073652;28;20570;-70
2022/03/07 03:17:35;;;;;;;16.30;11.00;;;;;;;;;;5074028;28;20991;-70
2022/03/07 03:20:02;;;;;;;17.17;11.03;;;;;;;;;;5073762;28;20487;-69
2022/03/07 03:22:29;;;;;;;23.73;12.50;;;;;;;;;;5073873;28;20458;-69
2022/03/07 03:24:56;;;;;;;19.73;11.70;;;;;;;;;;5073687;28;20452;-70
2022/03/07 03:27:23;;;;;;;19.50;11.33;;;;;;;;;;5073866;28;20824;-70
2022/03/07 03:29:50;;;;;;;19.37;12.50;;;;;;;;;;5073839;28;20455;-70
2022/03/07 03:32:19;;;;;;;21.83;11.27;;;;;;;;;;5073864;28;20451;-70
2022/03/07 03:34:46;;;;;;;19.77;10.63;;;;;;;;;;5073733;28;20490;-70
2022/03/07 03:37:13;;;;;;;11.43;6.37;;;;;;;;;;5073424;28;20483;-70
2022/03/07 03:39:40;;;;;;;16.70;9.63;;;;;;;;;;5073813;28;20474;-70
2022/03/07 03:42:07;;;;;;;21.37;12.63;;;;;;;;;;5073783;28;20458;-70
2022/03/07 03:44:34;;;;;;;16.33;10.30;;;;;;;;;;5073444;28;20451;-70
2022/03/07 03:47:01;;;;;;;18.87;12.83;;;;;;;;;;5073565;28;20499;-70
2022/03/07 03:49:30;;;;;;;16.37;9.87;;;;;;;;;;5073345;28;20460;-70
2022/03/07 03:51:57;;;;;;;15.97;10.77;;;;;;;;;;5073598;28;20459;-70
2022/03/07 03:54:24;;;;;;;12.33;8.43;;;;;;;;;;5073134;28;20487;-70
2022/03/07 03:56:51;;;;;;;16.37;10.07;;;;;;;;;;5073440;28;20478;-70
2022/03/07 03:59:18;;;;;;;19.70;10.87;;;;;;;;;;5073514;28;20452;-69
2022/03/07 04:01:45;;;;;;;21.23;11.20;;;;;;;;;;5073156;28;20452;-69
2022/03/07 04:04:13;;;;;;;20.70;13.90;;;;;;;;;;5073169;28;20444;-69
2022/03/07 04:06:42;;;;;;;17.53;10.53;;;;;;;;;;5073431;28;20436;-69
2022/03/07 04:09:09;;;;;;;14.60;9.50;;;;;;;;;;5073032;28;20456;-69
2022/03/07 04:11:36;;;;;;;17.70;9.90;;;;;;;;;;5073365;28;20802;-69
2022/03/07 04:14:03;;;;;;;15.37;11.00;;;;;;;;;;5072904;28;20487;-69
2022/03/07 04:16:31;;;;;;;31.80;17.23;;;;;;;;;;5073252;28;20932;-70
2022/03/07 04:18:58;;;;;;;13.87;9.27;;;;;;;;;;5074857;28;20459;-70
2022/03/07 04:21:26;;;;;;;17.80;11.07;;;;;;;;;;5079676;28;20458;-70
2022/03/07 04:23:54;;;;;;;18.73;11.07;;;;;;;;;;5079779;28;20451;-70
2022/03/07 04:26:21;;;;;;;12.80;8.87;;;;;;;;;;5079550;28;20447;-70
2022/03/07 04:28:49;;;;;;;17.63;11.03;;;;;;;;;;5079720;28;20847;-70
2022/03/07 04:31:16;;;;;;;19.50;12.00;;;;;;;;;;5079859;28;20451;-70
2022/03/07 04:33:43;;;;;;;16.90;9.30;;;;;;;;;;5079401;28;20459;-70
2022/03/07 04:36:10;;;;;;;19.60;11.63;;;;;;;;;;5079923;28;20474;-70
2022/03/07 04:38:37;;;;;;;15.67;10.00;;;;;;;;;;5079675;28;20510;-70
2022/03/07 04:41:06;;;;;;;23.03;9.67;;;;;;;;;;5079749;28;20941;-70
2022/03/07 04:43:33;;;;;;;17.87;9.93;;;;;;;;;;5079358;28;20451;-70
2022/03/07 04:46:00;;;;;;;18.43;12.43;;;;;;;;;;5079676;28;20459;-70
2022/03/07 04:48:27;;;;;;;18.23;11.40;;;;;;;;;;5079286;28;20485;-70
2022/03/07 04:50:54;;;;;;;15.90;10.87;;;;;;;;;;5079524;28;20462;-70
2022/03/07 04:53:21;;;;;;;11.60;7.63;;;;;;;;;;5079396;28;20451;-70
2022/03/07 04:55:49;;;;;;;18.30;10.83;;;;;;;;;;5079561;28;20880;-70
2022/03/07 04:58:17;;;;;;;15.37;10.77;;;;;;;;;;5079209;28;20471;-70
2022/03/07 05:00:44;;;;;;;15.43;10.60;;;;;;;;;;5079604;28;20452;-70
2022/03/07 05:03:12;;;;;;;23.97;11.80;;;;;;;;;;5079566;28;20466;-70
2022/03/07 05:05:39;;;;;;;21.00;11.37;;;;;;;;;;5079474;28;20637;-70
2022/03/07 05:08:06;;;;;;;19.63;10.20;;;;;;;;;;5079229;28;20474;-70
2022/03/07 05:10:33;;;;;;;14.53;11.47;;;;;;;;;;5079545;28;20906;-70
2022/03/07 05:13:00;;;;;;;16.93;11.93;;;;;;;;;;5079454;28;20459;-70
2022/03/07 05:15:29;;;;;;;19.20;11.37;;;;;;;;;;5079416;28;20486;-70
2022/03/07 05:17:56;;;;;;;13.90;9.73;;;;;;;;;;5079054;28;20483;-70
2022/03/07 05:20:24;;;;;;;19.83;10.40;;;;;;;;;;5079476;28;20458;-70
2022/03/07 05:22:52;;;;;;;14.87;9.20;;;;;;;;;;5079419;28;20967;-70
2022/03/07 05:25:20;;;;;;;19.57;11.87;;;;;;;;;;5079103;28;20448;-69
2022/03/07 05:27:47;;;;;;;22.77;12.83;;;;;;;;;;5079288;28;21038;-69
2022/03/07 05:30:15;;;;;;;17.00;10.60;;;;;;;;;;5078722;28;20451;-69
2022/03/07 05:32:44;;;;;;;20.47;13.50;;;;;;;;;;5076103;28;20865;-70
2022/03/07 05:35:11;;;;;;;22.10;12.70;;;;;;;;;;5076057;28;20491;-70
2022/03/07 05:37:39;;;;;;;16.07;10.47;;;;;;;;;;5075740;28;20480;-69
2022/03/07 05:40:07;;;;;;;9.97;7.00;;;;;;;;;;5076062;28;20459;-70
2022/03/07 05:42:35;;;;;;;14.80;9.40;;;;;;;;;;5076032;28;20501;-69
2022/03/07 05:45:02;;;;;;;15.17;10.80;;;;;;;;;;5075941;28;20447;-70
2022/03/07 05:47:29;;;;;;;21.43;11.87;;;;;;;;;;5075678;28;20483;-70
2022/03/07 05:49:57;;;;;;;26.17;10.17;;;;;;;;;;5075947;28;20802;-69
2022/03/07 05:52:24;;;;;;;19.90;11.50;;;;;;;;;;5075565;28;20456;-69
2022/03/07 05:54:52;;;;;;;20.03;10.83;;;;;;;;;;5075704;28;20824;-69
2022/03/07 05:57:19;;;;;;;13.70;9.53;;;;;;;;;;5075882;28;20468;-69
2022/03/07 05:59:46;;;;;;;19.03;10.83;;;;;;;;;;5075364;28;20451;-69
2022/03/07 06:02:13;;;;;;;10.93;9.00;;;;;;;;;;5075697;28;20448;-70
2022/03/07 06:04:41;;;;;;;18.10;10.23;;;;;;;;;;5075169;28;20452;-68
2022/03/07 06:07:10;;;;;;;9.80;7.03;;;;;;;;;;5075237;28;20480;-69
2022/03/07 06:09:37;;;;;;;15.33;10.90;;;;;;;;;;5075014;28;20452;-69
2022/03/07 06:12:05;;;;;;;16.27;9.47;;;;;;;;;;5075216;28;20439;-69
2022/03/07 06:14:32;;;;;;;15.00;9.10;;;;;;;;;;5075359;28;20909;-69
2022/03/07 06:16:59;;;;;;;16.40;9.20;;;;;;;;;;5075261;28;20474;-69
2022/03/07 06:19:26;;;;;;;16.27;9.60;;;;;;;;;;5074889;28;20452;-69
2022/03/07 06:21:53;;;;;;;7.50;4.67;;;;;;;;;;5075329;28;20819;-69
2022/03/07 06:24:22;;;;;;;16.93;8.17;;;;;;;;;;5075228;28;20460;-69
2022/03/07 06:26:49;;;;;;;17.77;10.90;;;;;;;;;;5074781;28;20478;-68
2022/03/07 06:29:16;;;;;;;17.17;12.60;;;;;;;;;;5075183;28;20827;-68
2022/03/07 06:31:43;;;;;;;5.17;4.60;;;;;;;;;;5075158;28;20478;-68
2022/03/07 06:34:10;;;;;;;16.37;8.70;;;;;;;;;;5075099;28;20450;-69
2022/03/07 06:36:37;;;;;;;16.70;9.50;;;;;;;;;;5074477;28;20533;-69
2022/03/07 06:39:05;;;;;;;14.73;8.00;;;;;;;;;;5074953;28;20491;-69
2022/03/07 06:41:33;;;;;;;15.80;9.70;;;;;;;;;;5074667;28;20456;-69
2022/03/07 06:44:00;;;;;;;15.13;8.57;;;;;;;;;;5074314;28;20455;-69
2022/03/07 06:46:28;;;;;;;12.47;7.30;;;;;;;;;;5074432;28;20509;-69
2022/03/07 06:48:55;;;;;;;15.50;10.60;;;;;;;;;;5074295;28;20464;-69
2022/03/07 06:51:23;;;;;;;35.07;17.63;;;;;;;;;;5074346;28;20451;-69
2022/03/07 06:53:50;;;;;;;25.10;14.80;;;;;;;;;;5074597;28;20847;-68
2022/03/07 06:56:17;;;;;;;26.07;12.60;;;;;;;;;;5074533;28;20494;-68
2022/03/07 06:58:46;;;;;;;33.53;14.70;;;;;;;;;;5074491;28;20525;-68
2022/03/07 07:01:13;;;;;;;16.97;10.63;;;;;;;;;;5074471;28;20463;-68
2022/03/07 07:03:40;;;;;;;23.67;15.57;;;;;;;;;;5074494;28;20455;-68
2022/03/07 07:06:08;;;;;;;26.03;13.53;;;;;;;;;;5074165;28;20439;-68
2022/03/07 07:08:35;;;;;;;22.43;14.13;;;;;;;;;;5072120;28;20509;-68
2022/03/07 07:11:02;;;;;;;13.30;8.20;;;;;;;;;;5071976;28;20456;-68
2022/03/07 07:13:29;;;;;;;25.00;12.10;;;;;;;;;;5072938;28;21100;-68
2022/03/07 07:15:58;;;;;;;22.77;12.90;;;;;;;;;;5072775;28;20479;-69
2022/03/07 07:18:26;;;;;;;37.63;19.30;;;;;;;;;;5072671;28;20503;-69
2022/03/07 07:20:53;;;;;;;24.63;14.90;;;;;;;;;;5072671;28;20455;-69
2022/03/07 07:23:20;;;;;;;20.63;13.73;;;;;;;;;;5072565;28;20458;-69
2022/03/07 07:25:47;;;;;;;16.17;10.43;;;;;;;;;;5072522;28;20444;-69
2022/03/07 07:28:15;;;;;;;28.20;16.50;;;;;;;;;;5072319;28;20476;-69
2022/03/07 07:30:42;;;;;;;23.20;13.33;;;;;;;;;;5072138;28;20808;-69
2022/03/07 07:33:10;;;;;;;23.80;13.97;;;;;;;;;;5072429;28;20450;-69
2022/03/07 07:35:38;;;;;;;61.70;39.37;;;;;;;;;;5072204;28;20482;-69
2022/03/07 07:38:05;;;;;;;22.77;17.00;;;;;;;;;;5071860;28;20475;-69
2022/03/07 07:40:32;;;;;;;19.53;11.37;;;;;;;;;;5072308;28;20489;-69
2022/03/07 07:43:00;;;;;;;18.23;13.37;;;;;;;;;;5072379;28;20447;-69
2022/03/07 07:45:27;;;;;;;23.23;16.20;;;;;;;;;;5071678;28;20454;-69
2022/03/07 07:47:54;;;;;;;30.43;15.60;;;;;;;;;;5071942;28;20498;-70
2022/03/07 07:50:23;;;;;;;23.50;15.00;;;;;;;;;;5072361;28;20462;-69
2022/03/07 07:52:50;;;;;;;25.67;15.00;;;;;;;;;;5073288;28;20451;-69
2022/03/07 07:55:17;;;;;;;27.23;14.43;;;;;;;;;;5072326;28;20534;-69
2022/03/07 07:57:44;;;;;;;26.23;14.67;;;;;;;;;;5073553;28;20478;-69
2022/03/07 08:00:15;;;;;;;25.57;15.37;;;;;;;;;;5073475;28;20463;-69
2022/03/07 08:02:43;;;;;;;20.80;14.30;;;;;;;;;;5073247;28;20815;-69
2022/03/07 08:05:10;;;;;;;26.40;14.70;;;;;;;;;;5073110;28;20476;-69
2022/03/07 08:07:41;;;;;;;31.30;16.90;;;;;;;;;;5073236;28;20883;-69
2022/03/07 08:10:08;;;;;;;29.63;13.43;;;;;;;;;;5073142;28;20444;-69
2022/03/07 08:12:35;;;;;;;28.27;16.10;;;;;;;;;;5073110;28;20447;-69
2022/03/07 08:15:05;;;;;;;21.70;14.97;;;;;;;;;;5072801;28;20452;-69
2022/03/07 08:17:32;;;;;;;17.20;12.13;;;;;;;;;;5073013;28;20471;-69
2022/03/07 08:19:59;;;;;;;25.70;14.90;;;;;;;;;;5073080;28;20463;-69
2022/03/07 08:22:26;;;;;;;20.43;14.20;;;;;;;;;;5073167;28;21007;-69
2022/03/07 08:24:55;;;;;;;19.67;13.83;;;;;;;;;;5072750;28;20478;-69
2022/03/07 08:27:22;;;;;;;17.07;11.83;;;;;;;;;;5072855;28;20475;-70
2022/03/07 08:29:49;;;;;;;19.33;12.67;;;;;;;;;;5072911;28;20475;-69
2022/03/07 08:32:16;;;;;;;21.30;12.17;;;;;;;;;;5073224;28;20860;-70
2022/03/07 08:34:43;;;;;;;20.57;14.53;;;;;;;;;;5072883;28;20489;-69
2022/03/07 08:37:10;;;;;;;18.43;10.50;;;;;;;;;;5073150;28;20502;-69
2022/03/07 08:39:37;;;;;;;27.50;14.23;;;;;;;;;;5073070;28;20463;-70
2022/03/07 08:42:06;;;;;;;21.20;13.47;;;;;;;;;;5073053;28;20451;-70
2022/03/07 08:44:33;;;;;;;16.07;11.17;;;;;;;;;;5072697;28;20450;-70
2022/03/07 08:47:01;;;;;;;24.27;15.70;;;;;;;;;;5072909;28;20969;-69
2022/03/07 08:49:28;;;;;;;14.50;8.27;;;;;;;;;;5072566;28;20487;-69
2022/03/07 08:51:55;;;;;;;15.47;8.43;;;;;;;;;;5072947;28;20448;-69
2022/03/07 08:54:22;;;;;;;20.03;12.77;;;;;;;;;;5072648;28;20451;-69
2022/03/07 08:56:49;;;;;;;19.47;11.10;;;;;;;;;;5072763;28;21000;-69
2022/03/07 08:59:18;;;;;;;19.97;10.07;;;;;;;;;;5072991;28;20462;-70
2022/03/07 09:01:45;;;;;;;23.93;13.77;;;;;;;;;;5072615;28;20455;-69
2022/03/07 09:04:12;;;;;;;27.93;13.57;;;;;;;;;;5072870;28;20459;-69
2022/03/07 09:06:39;;;;;;;32.47;16.63;;;;;;;;;;5075518;28;20448;-69
2022/03/07 09:09:06;;;;;;;13.30;9.60;;;;;;;;;;5076562;28;20903;-69
2022/03/07 09:11:33;;;;;;;23.80;13.70;;;;;;;;;;5076541;28;20451;-69
2022/03/07 09:14:00;;;;;;;29.47;16.13;;;;;;;;;;5076196;28;20451;-69
2022/03/07 09:16:29;;;;;;;27.90;16.27;;;;;;;;;;5076259;28;20486;-69
2022/03/07 09:18:57;;;;;;;18.70;9.47;;;;;;;;;;5076372;28;20447;-69
2022/03/07 09:21:24;;;;;;;25.40;12.37;;;;;;;;;;5076079;28;20455;-69
2022/03/07 09:23:51;;;;;;;17.30;10.63;;;;;;;;;;5076285;28;20816;-69
2022/03/07 09:26:18;;;;;;;15.60;9.10;;;;;;;;;;5076292;28;20450;-69
2022/03/07 09:28:46;;;;;;;18.93;11.77;;;;;;;;;;5075929;28;20482;-69
2022/03/07 09:31:13;;;;;;;13.13;9.30;;;;;;;;;;5076249;28;20458;-69
2022/03/07 09:33:41;;;;;;;25.73;14.60;;;;;;;;;;5076205;28;20458;-69
2022/03/07 09:36:09;;;;;;;15.17;9.40;;;;;;;;;;5076099;28;20494;-69
2022/03/07 09:38:36;;;;;;;28.57;14.67;;;;;;;;;;5076012;28;20475;-69
2022/03/07 09:41:04;;;;;;;21.07;13.57;;;;;;;;;;5075769;28;20459;-69
2022/03/07 09:43:31;;;;;;;14.90;9.40;;;;;;;;;;5076024;28;20455;-70
2022/03/07 09:45:59;;;;;;;17.53;12.43;;;;;;;;;;5076022;28;20458;-69
2022/03/07 09:48:26;;;;;;;24.73;11.87;;;;;;;;;;5075622;28;20483;-69
2022/03/07 09:50:55;;;;;;;20.03;14.23;;;;;;;;;;5075821;28;20454;-69
2022/03/07 09:53:22;;;;;;;23.73;12.43;;;;;;;;;;5075892;28;20948;-69
2022/03/07 09:55:49;;;;;;;19.60;9.20;;;;;;;;;;5075457;28;20490;-69
2022/03/07 09:58:17;;;;;;;25.13;15.63;;;;;;;;;;5075704;28;20475;-69
2022/03/07 10:00:44;;;;;;;13.67;9.30;;;;;;;;;;5075695;28;20959;-69
2022/03/07 10:03:13;;;;;;;29.20;12.07;;;;;;;;;;5075645;28;20455;-69
2022/03/07 10:05:41;;;;;;;17.60;11.07;;;;;;;;;;5075567;28;20436;-70
2022/03/07 10:08:10;;;;;;;12.27;8.90;;;;;;;;;;5075501;28;20507;-69
2022/03/07 10:10:38;;;;;;;17.97;9.40;;;;;;;;;;5075142;28;20447;-69
2022/03/07 10:13:07;;;;;;;20.60;13.00;;;;;;;;;;5075411;28;20459;-69
2022/03/07 10:15:34;;;;;;;18.37;9.80;;;;;;;;;;5075355;28;20452;-69
2022/03/07 10:18:02;;;;;;;18.63;10.90;;;;;;;;;;5074327;28;20479;-70
2022/03/07 10:20:29;;;;;;;16.37;9.90;;;;;;;;;;5075386;28;20997;-69
2022/03/07 10:22:57;;;;;;;7.93;6.43;;;;;;;;;;5075309;28;20451;-69
2022/03/07 10:25:27;;;;;;;18.33;13.80;;;;;;;;;;5075248;28;20829;-69
2022/03/07 10:27:54;;;;;;;13.47;8.93;;;;;;;;;;5074787;28;20471;-69
2022/03/07 10:30:22;;;;;;;20.40;11.97;;;;;;;;;;5075146;28;20964;-70
2022/03/07 10:32:54;;;;;;;57.47;48.30;;;;;;;;;;5075005;28;20455;-69
2022/03/07 10:35:25;;;;;;;34.33;25.80;;;;;;;;;;5074749;28;20459;-70
2022/03/07 10:37:56;;;;;;;19.50;11.77;;;;;;;;;;5074500;28;20500;-70
2022/03/07 10:40:23;;;;;;;27.43;14.83;;;;;;;;;;5074641;28;20459;-70
2022/03/07 10:42:53;;;;;;;15.83;10.63;;;;;;;;;;5074890;28;20458;-70
2022/03/07 10:45:20;;;;;;;15.13;9.80;;;;;;;;;;5074703;28;20452;-70
2022/03/07 10:47:51;;;;;;;8.77;6.10;;;;;;;;;;5074573;28;20479;-70
2022/03/07 10:50:21;;;;;;;14.07;9.50;;;;;;;;;;5074716;28;20447;-70
2022/03/07 10:52:48;;;;;;;19.47;12.97;;;;;;;;;;5074619;28;20454;-70
2022/03/07 10:55:15;;;;;;;18.20;12.73;;;;;;;;;;5074598;28;20455;-69
2022/03/07 10:57:43;;;;;;;17.10;11.57;;;;;;;;;;5074109;28;20487;-69
2022/03/07 11:00:14;;;;;;;22.20;13.33;;;;;;;;;;5074524;28;20459;-69
2022/03/07 11:02:42;;;;;;;15.10;10.00;;;;;;;;;;5074520;28;20889;-70
2022/03/07 11:05:10;;;;;;;28.00;16.73;;;;;;;;;;5074525;28;20432;-70
2022/03/07 11:07:41;;;;;;;49.93;24.60;;;;;;;;;;5074602;28;20471;-70
2022/03/07 11:10:09;;;;;;;24.77;18.60;;;;;;;;;;5074013;28;20463;-70
2022/03/07 11:12:37;;;;;;;20.03;13.73;;;;;;;;;;5073991;28;20459;-70
2022/03/07 11:15:08;;;;;;;15.90;10.10;;;;;;;;;;5074229;28;20788;-70
2022/03/07 11:17:39;;;;;;;20.07;12.97;;;;;;;;;;5074117;28;20492;-70
2022/03/07 11:20:07;;;;;;;47.27;24.70;;;;;;;;;;5074104;28;20447;-70
2022/03/07 11:22:34;;;;;;;19.10;14.03;;;;;;;;;;5074047;28;20974;-70
2022/03/07 11:25:02;;;;;;;14.53;11.07;;;;;;;;;;5073662;28;20460;-70
2022/03/07 11:27:30;;;;;;;23.40;16.07;;;;;;;;;;5073817;28;20482;-70
2022/03/07 11:29:57;;;;;;;36.37;22.67;;;;;;;;;;5073686;28;20451;-70
2022/03/07 11:32:24;;;;;;;12.60;9.80;;;;;;;;;;5073957;28;20448;-70
2022/03/07 11:34:54;;;;;;;17.40;11.30;;;;;;;;;;5073631;28;20467;-70
2022/03/07 11:37:22;;;;;;;24.60;14.70;;;;;;;;;;5073626;28;20488;-70
2022/03/07 11:39:50;;;;;;;13.63;10.90;;;;;;;;;;5073829;28;20456;-70
2022/03/07 11:42:17;;;;;;;24.63;15.77;;;;;;;;;;5073859;28;20460;-70
2022/03/07 11:44:45;;;;;;;20.47;14.77;;;;;;;;;;5073732;28;20870;-70
2022/03/07 11:47:13;;;;;;;20.83;13.80;;;;;;;;;;5073286;28;20472;-70
2022/03/07 11:49:41;;;;;;;15.87;12.67;;;;;;;;;;5073453;28;20436;-70
2022/03/07 11:52:10;;;;;;;20.30;14.60;;;;;;;;;;5073710;28;20455;-70
2022/03/07 11:54:50;;;;;;;18.10;13.27;;;;;;;;;;5073618;28;20447;-70
2022/03/07 11:57:17;;;;;;;21.40;15.00;;;;;;;;;;5073585;28;20576;-70
2022/03/07 11:59:45;;;;;;;23.10;14.13;;;;;;;;;;5073482;28;20509;-70
2022/03/07 12:02:15;;;;;;;20.07;14.87;;;;;;;;;;5073553;28;20636;-70
2022/03/07 12:04:43;;;;;;;22.60;14.23;;;;;;;;;;5073573;28;20845;-70
2022/03/07 12:07:12;;;;;;;28.33;11.20;;;;;;;;;;5073114;28;20482;-70
2022/03/07 12:09:39;;;;;;;20.37;14.27;;;;;;;;;;5073519;28;20474;-70
2022/03/07 12:12:07;;;;;;;20.07;14.20;;;;;;;;;;5073445;28;20945;-70
2022/03/07 12:14:35;;;;;;;22.10;15.10;;;;;;;;;;5073446;28;20452;-70
2022/03/07 12:17:03;;;;;;;15.80;11.90;;;;;;;;;;5072962;28;20487;-70
2022/03/07 12:19:30;;;;;;;22.07;16.03;;;;;;;;;;5073363;28;20948;-70
2022/03/07 12:21:57;;;;;;;17.10;11.10;;;;;;;;;;5073338;28;20483;-70
2022/03/07 12:24:26;;;;;;;18.60;12.40;;;;;;;;;;5073224;28;20793;-70
2022/03/07 12:26:54;;;;;;;18.43;11.10;;;;;;;;;;5072902;28;20482;-70
2022/03/07 12:29:21;;;;;;;19.47;14.30;;;;;;;;;;5073247;28;20817;-70
2022/03/07 12:31:49;;;;;;;17.33;13.23;;;;;;;;;;5072960;28;20459;-70
2022/03/07 12:34:19;;;;;;;19.30;13.90;;;;;;;;;;5073303;28;20864;-70
2022/03/07 12:36:46;;;;;;;18.27;14.23;;;;;;;;;;5073311;28;20545;-70
2022/03/07 12:39:13;;;;;;;15.30;13.30;;;;;;;;;;5073133;28;20817;-70
2022/03/07 12:41:42;;;;;;;17.60;14.10;;;;;;;;;;5076069;28;20455;-70
2022/03/07 12:44:09;;;;;;;17.70;13.90;;;;;;;;;;5077087;28;20455;-70
2022/03/07 12:46:36;;;;;;;19.57;13.17;;;;;;;;;;5077024;28;20458;-70
2022/03/07 12:49:03;;;;;;;17.73;14.50;;;;;;;;;;5076708;28;20466;-70
2022/03/07 12:51:30;;;;;;;18.60;14.63;;;;;;;;;;5077075;28;20451;-70
2022/03/07 12:53:58;;;;;;;16.77;13.47;;;;;;;;;;5076770;28;20454;-70
2022/03/07 12:56:26;;;;;;;17.27;12.80;;;;;;;;;;5076831;28;20818;-70
2022/03/07 12:58:57;;;;;;;18.33;13.40;;;;;;;;;;5076886;28;20452;-70
2022/03/07 13:01:24;;;;;;;19.63;14.03;;;;;;;;;;5076743;28;20948;-70
2022/03/07 13:03:52;;;;;;;22.87;15.43;;;;;;;;;;5076840;28;20525;-70
2022/03/07 13:06:19;;;;;;;16.77;12.93;;;;;;;;;;5076493;28;20531;-70
2022/03/07 13:08:50;;;;;;;18.83;14.87;;;;;;;;;;5076319;28;20467;-70
2022/03/07 13:11:17;;;;;;;15.73;10.37;;;;;;;;;;5076673;28;20935;-70
2022/03/07 13:13:45;;;;;;;20.80;12.47;;;;;;;;;;5076582;28;20884;-70
2022/03/07 13:16:24;;;;;;;19.67;13.90;;;;;;;;;;5076633;28;20451;-69
2022/03/07 13:18:57;;;;;;;20.20;13.27;;;;;;;;;;5076527;28;20963;-70
2022/03/07 13:21:24;;;;;;;19.47;14.20;;;;;;;;;;5076130;28;20443;-70
2022/03/07 13:23:51;;;;;;;21.83;12.60;;;;;;;;;;5076132;28;20452;-69
2022/03/07 13:26:22;;;;;;;22.13;14.37;;;;;;;;;;5076334;28;20447;-69
2022/03/07 13:28:50;;;;;;;18.37;13.00;;;;;;;;;;5076265;28;20486;-70
2022/03/07 13:31:18;;;;;;;26.97;13.67;;;;;;;;;;5076288;28;20940;-70
2022/03/07 13:33:45;;;;;;;16.37;11.17;;;;;;;;;;5075906;28;20456;-70
2022/03/07 13:36:13;;;;;;;18.07;13.87;;;;;;;;;;5076196;28;20463;-70
2022/03/07 13:38:40;;;;;;;19.00;11.87;;;;;;;;;;5075995;28;21063;-70
2022/03/07 13:41:07;;;;;;;18.30;12.93;;;;;;;;;;5076135;28;20505;-70
2022/03/07 13:43:36;;;;;;;17.50;13.93;;;;;;;;;;5076036;28;20932;-70
2022/03/07 13:46:03;;;;;;;22.50;13.90;;;;;;;;;;5075996;28;20524;-70
2022/03/07 13:48:32;;;;;;;22.37;11.87;;;;;;;;;;5075546;28;20483;-70
2022/03/07 13:50:59;;;;;;;26.20;12.63;;;;;;;;;;5075763;28;20448;-70
2022/03/07 13:53:26;;;;;;;20.00;13.40;;;;;;;;;;5074801;28;20814;-70
2022/03/07 13:55:56;;;;;;;14.47;11.80;;;;;;;;;;5075470;28;20448;-70
2022/03/07 13:58:28;;;;;;;18.13;13.07;;;;;;;;;;5074608;28;20862;-70
2022/03/07 14:01:03;;;;;;;18.40;11.20;;;;;;;;;;5075327;28;20451;-70
2022/03/07 14:03:32;;;;;;;16.97;13.00;;;;;;;;;;5075198;28;20458;-70
2022/03/07 14:05:59;;;;;;;28.30;15.93;;;;;;;;;;5075319;28;20451;-70
2022/03/07 14:08:30;;;;;;;20.20;15.67;;;;;;;;;;5075485;28;20471;-70
2022/03/07 14:10:58;;;;;;;24.00;13.00;;;;;;;;;;5075463;28;20810;-70
2022/03/07 14:13:25;;;;;;;22.07;11.63;;;;;;;;;;5075406;28;20933;-70
2022/03/07 14:15:53;;;;;;;14.17;9.20;;;;;;;;;;5075406;28;20455;-70
2022/03/07 14:18:20;;;;;;;21.87;10.47;;;;;;;;;;5075257;28;20483;-70
2022/03/07 14:20:48;;;;;;;27.97;14.77;;;;;;;;;;5075040;28;20455;-70